Time;durP1;ratioP1;P1;durP2;ratioP2;P2;SDS_P1;SDS_P2;PMS_P1;PMS_P2;Temp;Humidity;BMP_temperature;BMP_pressure;BME280_temperature;BME280_humidity;BME280_pressure;Samples;Min_cycle;Max_cycle;Signal;HPM_P1;HPM_P2
2022/04/09 00:00:25;;;;;;;59.42;49.27;;;23.90;73.90;;;;;;1903126;75;21249;-83
2022/04/09 00:02:56;;;;;;;58.48;50.15;;;24.00;73.70;;;;;;1916070;75;21081;-83
2022/04/09 00:05:27;;;;;;;58.75;48.40;;;23.90;73.40;;;;;;1915920;73;21131;-83
2022/04/09 00:07:59;;;;;;;63.28;50.23;;;24.00;73.10;;;;;;1899403;75;21229;-83
2022/04/09 00:10:32;;;;;;;59.60;48.45;;;24.10;73.10;;;;;;1904334;73;21147;-83
2022/04/09 00:13:03;;;;;;;62.90;49.35;;;24.10;73.10;;;;;;1904440;73;21135;-82
2022/04/09 00:15:34;;;;;;;66.20;49.90;;;24.10;73.40;;;;;;1913814;73;21136;-82
2022/04/09 00:18:06;;;;;;;60.90;47.95;;;24.10;72.70;;;;;;1919503;73;21170;-82
2022/04/09 00:20:37;;;;;;;60.88;47.83;;;24.20;72.40;;;;;;1896718;75;21082;-81
2022/04/09 00:23:13;;;;;;;59.30;47.10;;;24.20;72.50;;;;;;1908128;73;21140;-81
2022/04/09 00:25:41;;;;;;;59.38;48.45;;;24.20;72.40;;;;;;1910722;73;21062;-82
2022/04/09 00:28:12;;;;;;;59.63;46.95;;;24.30;72.00;;;;;;1905330;73;21157;-82
2022/04/09 00:30:43;;;;;;;60.95;47.80;;;24.30;71.50;;;;;;1910341;73;21085;-83
2022/04/09 00:33:14;;;;;;;56.08;45.98;;;24.40;71.30;;;;;;1906492;73;21233;-82
2022/04/09 00:35:45;;;;;;;55.40;43.70;;;24.50;71.00;;;;;;1905775;73;21127;-81
2022/04/09 00:38:16;;;;;;;53.78;41.35;;;24.60;68.80;;;;;;1905702;73;21123;-82
2022/04/09 00:40:47;;;;;;;50.20;41.23;;;24.70;67.40;;;;;;1913643;73;21077;-82
2022/04/09 00:43:18;;;;;;;50.60;40.28;;;24.80;67.00;;;;;;1901864;73;21181;-81
2022/04/09 00:45:50;;;;;;;48.30;40.45;;;24.90;66.90;;;;;;1895795;75;21136;-82
2022/04/09 00:48:22;;;;;;;47.17;39.18;;;25.00;66.60;;;;;;1907921;73;21078;-83
2022/04/09 00:50:54;;;;;;;49.25;38.53;;;25.00;66.20;;;;;;1897816;73;21090;-81
2022/04/09 00:53:27;;;;;;;48.13;39.98;;;25.10;65.20;;;;;;1901045;75;21104;-82
2022/04/09 00:58:34;;;;;;;45.80;38.95;;;25.30;64.50;;;;;;1867749;74;21131;-82
2022/04/09 01:01:06;;;;;;;47.27;39.42;;;25.30;62.90;;;;;;1863727;76;21180;-83
2022/04/09 01:03:39;;;;;;;48.85;40.12;;;25.30;63.10;;;;;;1836460;78;21507;-81
2022/04/09 01:06:12;;;;;;;52.65;42.75;;;25.40;63.40;;;;;;1859224;76;21139;-82
2022/04/09 01:08:42;;;;;;;51.55;41.28;;;25.40;63.80;;;;;;1877129;76;21607;-82
2022/04/09 01:11:15;;;;;;;49.38;41.70;;;25.50;63.80;;;;;;1886157;76;21249;-82
2022/04/09 01:13:46;;;;;;;52.25;41.65;;;25.50;63.50;;;;;;1876353;76;21172;-82
2022/04/09 01:16:17;;;;;;;47.35;39.20;;;25.60;62.70;;;;;;1847461;77;21158;-81
2022/04/09 01:18:48;;;;;;;51.45;43.00;;;25.60;62.50;;;;;;1810203;78;21109;-83
2022/04/09 01:21:19;;;;;;;54.65;41.68;;;25.70;64.10;;;;;;1808290;79;21111;-82
2022/04/09 01:23:51;;;;;;;48.50;39.88;;;25.70;63.80;;;;;;1872674;76;21104;-83
2022/04/09 01:26:23;;;;;;;48.20;39.00;;;25.70;62.40;;;;;;1866595;76;21116;-83
2022/04/09 01:28:54;;;;;;;49.05;40.03;;;25.80;61.40;;;;;;1836772;78;21095;-83
2022/04/09 01:31:25;;;;;;;50.92;37.65;;;25.80;61.80;;;;;;1860489;76;21571;-82
2022/04/09 01:33:56;;;;;;;39.48;31.90;;;25.90;61.00;;;;;;1879970;76;21076;-81
2022/04/09 01:36:27;;;;;;;40.20;32.45;;;25.90;59.30;;;;;;1807773;78;21124;-80
2022/04/09 01:38:58;;;;;;;43.40;35.28;;;25.90;59.40;;;;;;1869532;76;21132;-80
2022/04/09 01:41:29;;;;;;;39.60;34.60;;;26.00;58.70;;;;;;1894168;76;21092;-81
2022/04/09 01:44:00;;;;;;;34.00;27.48;;;26.00;58.50;;;;;;1893634;76;21057;-81
2022/04/09 01:46:30;;;;;;;41.13;33.08;;;26.10;56.80;;;;;;1884145;76;21140;-79
2022/04/09 01:49:02;;;;;;;40.12;32.70;;;26.10;58.00;;;;;;1845388;78;21092;-82
2022/04/09 01:51:33;;;;;;;40.92;32.55;;;26.20;58.50;;;;;;1857595;77;21068;-80
2022/04/09 01:54:04;;;;;;;43.60;33.13;;;26.30;58.10;;;;;;1847405;78;21088;-82
2022/04/09 01:56:35;;;;;;;39.35;32.10;;;26.30;57.80;;;;;;1857976;76;21118;-83
2022/04/09 01:59:07;;;;;;;40.55;32.35;;;26.30;57.50;;;;;;1846118;76;21104;-83
2022/04/09 02:01:39;;;;;;;41.35;30.65;;;26.40;57.10;;;;;;1840526;78;21154;-82
2022/04/09 02:04:10;;;;;;;33.83;28.02;;;26.50;58.30;;;;;;1850727;77;21065;-82
2022/04/09 02:06:44;;;;;;;33.78;28.70;;;26.60;57.00;;;;;;1850839;77;21068;-81
2022/04/09 02:09:15;;;;;;;36.90;29.70;;;26.60;55.70;;;;;;1879515;76;21647;-81
2022/04/09 02:11:46;;;;;;;33.78;26.33;;;26.70;56.40;;;;;;1856166;76;21166;-82
2022/04/09 02:14:18;;;;;;;34.98;26.85;;;26.70;55.50;;;;;;1855791;76;21512;-82
2022/04/09 02:16:49;;;;;;;32.45;27.93;;;26.80;54.60;;;;;;1877614;76;21089;-81
2022/04/09 02:19:20;;;;;;;30.40;27.00;;;26.80;55.20;;;;;;1872382;76;21081;-82
2022/04/09 02:21:51;;;;;;;33.78;27.93;;;26.90;54.70;;;;;;1866616;76;21090;-81
2022/04/09 02:24:22;;;;;;;32.30;28.80;;;26.90;55.10;;;;;;1869183;76;21142;-82
2022/04/09 02:26:53;;;;;;;33.23;28.20;;;26.90;54.50;;;;;;1862331;76;21126;-82
2022/04/09 02:29:24;;;;;;;37.80;27.95;;;27.00;55.50;;;;;;1814534;79;21186;-83
2022/04/09 02:31:56;;;;;;;33.38;28.25;;;27.00;54.90;;;;;;1864763;76;21120;-82
2022/04/09 02:34:27;;;;;;;38.73;30.48;;;27.20;56.70;;;;;;1875783;76;21085;-72
2022/04/09 02:36:58;;;;;;;34.65;28.10;;;27.20;55.60;;;;;;1875531;76;21418;-71
2022/04/09 02:39:30;;;;;;;36.23;28.95;;;27.20;55.50;;;;;;1872104;76;21221;-71
2022/04/09 02:42:01;;;;;;;39.38;29.67;;;27.30;55.60;;;;;;1862545;76;21560;-71
2022/04/09 02:44:32;;;;;;;42.10;30.25;;;27.40;55.90;;;;;;1879797;76;21139;-72
2022/04/09 02:47:04;;;;;;;36.77;30.12;;;27.50;57.30;;;;;;1861495;76;21069;-72
2022/04/09 02:49:34;;;;;;;38.63;30.02;;;27.50;55.80;;;;;;1854893;76;21573;-72
2022/04/09 02:52:10;;;;;;;34.92;28.75;;;27.50;56.10;;;;;;1860164;75;21120;-72
2022/04/09 02:54:40;;;;;;;36.20;29.52;;;27.70;55.20;;;;;;1852491;76;21097;-71
2022/04/09 02:57:13;;;;;;;39.00;29.98;;;27.70;55.30;;;;;;1849935;77;21088;-70
2022/04/09 02:59:51;;;;;;;38.25;28.75;;;27.80;55.50;;;;;;1867461;76;21105;-71
2022/04/09 03:02:22;;;;;;;33.40;28.52;;;27.90;55.00;;;;;;1885558;75;21084;-73
2022/04/09 03:04:54;;;;;;;34.95;29.20;;;28.00;55.10;;;;;;1871835;77;21131;-72
2022/04/09 03:07:26;;;;;;;36.68;29.15;;;28.10;55.30;;;;;;1886734;75;21108;-72
2022/04/09 03:09:56;;;;;;;35.08;29.90;;;28.20;55.20;;;;;;1835927;77;21176;-73
2022/04/09 03:12:28;;;;;;;35.50;27.95;;;28.20;55.10;;;;;;1824184;77;21081;-72
2022/04/09 03:14:59;;;;;;;33.58;28.40;;;28.30;61.10;;;;;;1836467;78;21113;-73
2022/04/09 03:17:30;;;;;;;33.48;28.77;;;28.50;58.50;;;;;;1805072;79;21632;-72
2022/04/09 03:20:03;;;;;;;38.92;27.17;;;28.60;61.00;;;;;;1826317;77;21242;-72
2022/04/09 03:22:35;;;;;;;37.28;27.67;;;28.50;54.00;;;;;;1913799;75;21096;-72
2022/04/09 03:25:06;;;;;;;39.20;27.37;;;28.60;55.00;;;;;;1900282;75;21155;-72
2022/04/09 03:27:38;;;;;;;32.40;28.05;;;28.70;53.10;;;;;;1883136;76;21673;-73
2022/04/09 03:30:10;;;;;;;33.85;28.23;;;28.80;53.40;;;;;;1885849;75;21089;-71
2022/04/09 03:32:41;;;;;;;37.95;28.07;;;28.80;52.50;;;;;;1888758;75;21144;-72
2022/04/09 03:35:13;;;;;;;34.48;27.58;;;28.90;52.90;;;;;;1871727;77;21105;-72
2022/04/09 03:37:45;;;;;;;38.50;29.12;;;28.90;53.60;;;;;;1882825;76;21170;-72
2022/04/09 03:40:17;;;;;;;33.73;28.10;;;28.90;53.60;;;;;;1881002;75;21666;-72
2022/04/09 03:42:50;;;;;;;35.38;28.83;;;28.90;53.30;;;;;;1884129;75;21520;-72
2022/04/09 03:45:21;;;;;;;39.60;29.00;;;28.90;52.70;;;;;;1872618;75;21120;-73
2022/04/09 03:47:52;;;;;;;31.75;28.42;;;29.00;52.70;;;;;;1883565;76;21627;-72
2022/04/09 03:50:23;;;;;;;34.67;27.37;;;29.00;53.30;;;;;;1878605;75;21591;-72
2022/04/09 03:52:54;;;;;;;36.93;29.57;;;29.00;53.10;;;;;;1917406;75;21108;-71
2022/04/09 03:55:28;;;;;;;36.15;27.67;;;29.10;53.70;;;;;;1903994;75;21077;-72
2022/04/09 03:57:59;;;;;;;34.98;28.62;;;29.20;52.40;;;;;;1916609;75;21197;-73
2022/04/09 04:00:30;;;;;;;36.17;27.07;;;29.20;52.30;;;;;;1886199;75;21225;-72
2022/04/09 04:03:01;;;;;;;36.33;28.15;;;29.20;51.90;;;;;;1893806;75;21084;-72
2022/04/09 04:05:32;;;;;;;34.98;27.60;;;29.30;52.10;;;;;;1883377;75;21146;-71
2022/04/09 04:08:05;;;;;;;33.95;26.75;;;29.40;52.00;;;;;;1908066;75;21749;-72
2022/04/09 04:10:37;;;;;;;33.35;26.48;;;29.50;51.60;;;;;;1891287;75;21604;-72
2022/04/09 04:13:08;;;;;;;34.27;26.27;;;29.60;51.70;;;;;;1835619;78;21682;-72
2022/04/09 04:15:40;;;;;;;30.15;25.20;;;29.60;51.00;;;;;;1907558;75;21076;-72
2022/04/09 04:18:12;;;;;;;30.68;25.00;;;29.70;50.50;;;;;;1879621;74;21077;-72
2022/04/09 04:20:43;;;;;;;27.95;24.92;;;29.70;50.60;;;;;;1889914;75;21055;-72
2022/04/09 04:23:13;;;;;;;31.50;24.50;;;29.80;50.70;;;;;;1884313;75;21670;-72
2022/04/09 04:25:44;;;;;;;34.30;24.67;;;29.80;50.70;;;;;;1898406;73;21177;-72
2022/04/09 04:28:15;;;;;;;31.70;22.77;;;29.80;50.20;;;;;;1878180;75;21117;-72
2022/04/09 04:30:46;;;;;;;30.08;24.45;;;29.90;50.50;;;;;;1901149;75;21088;-73
2022/04/09 04:33:17;;;;;;;29.50;24.85;;;29.90;50.30;;;;;;1884215;75;21214;-72
2022/04/09 04:35:48;;;;;;;30.30;24.82;;;30.00;49.80;;;;;;1909210;75;21202;-74
2022/04/09 04:38:19;;;;;;;30.30;24.45;;;30.10;50.10;;;;;;1889435;75;21127;-73
2022/04/09 04:40:51;;;;;;;34.05;24.80;;;30.20;50.30;;;;;;1903089;75;21092;-72
2022/04/09 04:43:22;;;;;;;29.35;24.95;;;30.30;49.00;;;;;;1897217;75;21525;-71
2022/04/09 04:45:53;;;;;;;31.80;24.47;;;30.30;49.40;;;;;;1901129;75;21187;-73
2022/04/09 04:48:24;;;;;;;32.60;24.90;;;30.40;48.70;;;;;;1899472;75;21054;-73
2022/04/09 04:50:55;;;;;;;33.25;25.08;;;30.40;48.50;;;;;;1901755;75;21068;-73
2022/04/09 04:53:26;;;;;;;29.20;24.65;;;30.40;47.70;;;;;;1896867;75;21081;-73
2022/04/09 04:55:57;;;;;;;28.80;24.40;;;30.40;49.00;;;;;;1916987;75;21560;-72
2022/04/09 04:58:28;;;;;;;33.42;25.50;;;30.40;48.60;;;;;;1891936;75;21571;-73
2022/04/09 05:01:00;;;;;;;27.67;23.25;;;30.40;48.10;;;;;;1894375;74;21068;-73
2022/04/09 05:03:50;;;;;;;29.02;25.20;;;30.50;47.70;;;;;;1862965;76;21154;-72
2022/04/09 05:06:22;;;;;;;30.10;23.47;;;30.60;47.40;;;;;;1764421;81;21638;-73
2022/04/09 05:08:53;;;;;;;30.40;24.87;;;30.70;47.20;;;;;;1796863;80;21665;-72
2022/04/09 05:11:24;;;;;;;30.60;23.95;;;30.80;47.50;;;;;;1821259;78;21214;-73
2022/04/09 05:13:55;;;;;;;33.35;24.20;;;30.90;47.00;;;;;;1831007;78;21158;-73
2022/04/09 05:16:28;;;;;;;30.62;24.75;;;31.00;46.00;;;;;;1838775;77;21159;-73
2022/04/09 05:19:00;;;;;;;30.32;24.20;;;31.10;46.00;;;;;;1833218;77;21599;-73
2022/04/09 05:21:31;;;;;;;27.45;24.15;;;31.00;46.30;;;;;;1816209;78;21145;-73
2022/04/09 05:24:02;;;;;;;26.93;24.23;;;31.00;46.30;;;;;;1817915;78;21137;-73
2022/04/09 05:26:33;;;;;;;32.03;25.32;;;31.00;45.90;;;;;;1824788;78;21170;-73
2022/04/09 05:29:05;;;;;;;31.02;23.85;;;31.00;46.00;;;;;;1816878;78;21542;-72
2022/04/09 05:31:36;;;;;;;29.63;24.07;;;31.00;43.00;;;;;;1825385;78;21720;-73
2022/04/09 05:34:07;;;;;;;32.17;24.23;;;31.00;43.50;;;;;;1817771;78;21115;-73
2022/04/09 05:36:38;;;;;;;27.17;23.98;;;31.10;45.20;;;;;;1787538;78;21083;-72
2022/04/09 05:39:11;;;;;;;30.65;25.48;;;31.10;44.60;;;;;;1757087;81;21230;-73
2022/04/09 05:41:42;;;;;;;30.85;24.82;;;31.20;44.20;;;;;;1790117;80;21575;-72
2022/04/09 05:44:13;;;;;;;30.75;24.63;;;31.20;44.60;;;;;;1824613;78;21177;-73
2022/04/09 05:46:46;;;;;;;32.70;25.17;;;31.20;44.70;;;;;;1792407;79;21189;-73
2022/04/09 05:49:18;;;;;;;32.85;24.57;;;31.30;44.80;;;;;;1819354;78;21182;-73
2022/04/09 05:51:49;;;;;;;29.27;24.85;;;31.30;45.20;;;;;;1826260;77;21606;-72
2022/04/09 05:54:21;;;;;;;32.20;24.52;;;31.30;45.80;;;;;;1820124;77;21613;-73
2022/04/09 05:56:52;;;;;;;33.85;25.52;;;31.40;46.00;;;;;;1817750;78;21122;-72
2022/04/09 05:59:26;;;;;;;32.88;26.10;;;31.40;46.10;;;;;;1815703;78;21622;-74
2022/04/09 06:01:59;;;;;;;34.13;25.55;;;31.40;46.30;;;;;;1815566;78;21241;-74
2022/04/09 06:04:31;;;;;;;32.30;25.75;;;31.50;46.70;;;;;;1816798;78;21181;-74
2022/04/09 06:07:03;;;;;;;33.78;25.72;;;31.50;45.10;;;;;;1788875;79;21639;-72
2022/04/09 06:09:34;;;;;;;33.00;25.65;;;31.50;44.90;;;;;;1780758;79;21142;-71
2022/04/09 06:12:07;;;;;;;33.63;26.68;;;31.40;45.80;;;;;;1780709;79;21193;-72
2022/04/09 06:14:39;;;;;;;32.17;26.30;;;31.40;45.90;;;;;;1777407;79;21705;-72
2022/04/09 06:17:10;;;;;;;34.18;27.73;;;31.30;46.10;;;;;;1780143;79;21575;-73
2022/04/09 06:19:44;;;;;;;31.35;25.62;;;31.30;45.90;;;;;;1782343;79;21151;-72
2022/04/09 06:22:16;;;;;;;35.95;26.30;;;31.40;45.90;;;;;;1786280;79;21120;-72
2022/04/09 06:24:47;;;;;;;29.75;25.37;;;31.30;47.20;;;;;;1783741;79;21096;-73
2022/04/09 06:27:18;;;;;;;31.20;26.62;;;31.40;45.50;;;;;;1784309;79;21589;-71
2022/04/09 06:29:48;;;;;;;29.77;26.20;;;31.40;45.80;;;;;;1781888;79;21555;-72
2022/04/09 06:32:19;;;;;;;35.58;25.62;;;31.50;46.30;;;;;;1747237;81;21164;-72
2022/04/09 06:34:50;;;;;;;30.75;25.60;;;31.60;45.70;;;;;;1727424;83;21139;-73
2022/04/09 06:37:22;;;;;;;33.50;25.95;;;31.50;47.00;;;;;;1755971;82;21103;-73
2022/04/09 06:39:53;;;;;;;32.03;26.60;;;31.50;46.10;;;;;;1802930;79;21323;-73
2022/04/09 06:42:25;;;;;;;32.98;26.65;;;31.50;46.30;;;;;;1803519;79;21585;-72
2022/04/09 06:44:58;;;;;;;33.73;26.20;;;31.50;46.50;;;;;;1803795;79;21602;-73
2022/04/09 06:47:28;;;;;;;33.42;26.65;;;31.50;46.20;;;;;;1804038;79;21249;-73
2022/04/09 06:50:00;;;;;;;32.90;26.20;;;31.60;46.30;;;;;;1803876;79;21096;-73
2022/04/09 06:52:30;;;;;;;32.93;24.98;;;31.60;46.20;;;;;;1803740;79;21104;-72
2022/04/09 06:55:02;;;;;;;33.13;26.75;;;31.50;45.40;;;;;;1803923;79;21207;-73
2022/04/09 06:57:35;;;;;;;31.62;26.23;;;31.50;45.40;;;;;;1803787;79;21604;-72
2022/04/09 07:00:08;;;;;;;34.92;27.00;;;31.40;45.10;;;;;;1804743;79;21229;-73
2022/04/09 07:02:39;;;;;;;31.73;26.82;;;31.40;45.40;;;;;;1793122;79;21139;-73
2022/04/09 07:05:10;;;;;;;30.43;26.02;;;31.40;45.50;;;;;;1781731;79;21202;-73
2022/04/09 07:07:43;;;;;;;31.68;27.20;;;31.30;45.20;;;;;;1809110;78;21175;-73
2022/04/09 07:10:15;;;;;;;30.27;26.25;;;31.30;45.80;;;;;;1803705;79;21139;-73
2022/04/09 07:12:46;;;;;;;34.18;28.07;;;31.20;46.10;;;;;;1804048;79;21096;-73
2022/04/09 07:15:17;;;;;;;31.23;26.82;;;31.10;45.40;;;;;;1803735;79;21112;-71
2022/04/09 07:17:48;;;;;;;29.65;25.82;;;31.10;45.80;;;;;;1803865;79;21544;-72
2022/04/09 07:20:19;;;;;;;32.25;26.35;;;31.20;45.80;;;;;;1803881;79;21167;-71
2022/04/09 07:22:50;;;;;;;33.00;27.05;;;31.10;45.60;;;;;;1803778;79;21101;-72
2022/04/09 07:25:21;;;;;;;34.80;27.52;;;31.10;46.20;;;;;;1803907;79;21501;-73
2022/04/09 07:27:54;;;;;;;29.77;26.68;;;31.20;46.30;;;;;;1803367;79;21143;-71
2022/04/09 07:30:26;;;;;;;34.83;27.22;;;31.20;45.70;;;;;;1803713;79;21678;-72
2022/04/09 07:32:57;;;;;;;37.05;27.37;;;31.20;45.80;;;;;;1803822;79;21614;-72
2022/04/09 07:35:29;;;;;;;35.20;26.23;;;31.20;45.70;;;;;;1802829;79;21127;-72
2022/04/09 07:38:00;;;;;;;33.85;26.02;;;31.20;45.80;;;;;;1802181;79;21128;-73
2022/04/09 07:40:32;;;;;;;30.30;25.60;;;31.10;46.20;;;;;;1768069;81;21112;-72
2022/04/09 07:43:03;;;;;;;34.48;26.82;;;31.10;46.20;;;;;;1798789;79;21567;-73
2022/04/09 07:45:35;;;;;;;35.28;26.35;;;31.10;46.20;;;;;;1803215;79;21131;-72
2022/04/09 07:48:06;;;;;;;30.12;25.17;;;31.10;46.00;;;;;;1802806;79;21592;-71
2022/04/09 07:50:39;;;;;;;34.40;27.10;;;31.10;46.30;;;;;;1791595;78;21101;-72
2022/04/09 07:53:11;;;;;;;33.33;26.40;;;31.20;46.60;;;;;;1753227;81;21104;-72
2022/04/09 07:55:42;;;;;;;30.45;25.65;;;31.20;46.40;;;;;;1795236;79;21133;-71
2022/04/09 07:58:14;;;;;;;31.07;26.17;;;31.20;46.00;;;;;;1802777;79;21128;-71
2022/04/09 08:00:45;;;;;;;30.48;25.62;;;31.20;46.30;;;;;;1775714;79;21120;-72
2022/04/09 08:03:17;;;;;;;29.98;26.00;;;31.20;46.30;;;;;;1774889;81;21105;-71
2022/04/09 08:05:48;;;;;;;31.20;26.12;;;31.20;46.30;;;;;;1794536;79;21554;-73
2022/04/09 08:08:19;;;;;;;32.10;26.80;;;31.10;45.70;;;;;;1803632;79;21100;-72
2022/04/09 08:10:51;;;;;;;34.23;26.45;;;31.10;46.90;;;;;;1812754;79;21602;-72
2022/04/09 08:13:22;;;;;;;32.98;27.20;;;31.10;46.30;;;;;;1785489;79;21144;-72
2022/04/09 08:15:53;;;;;;;32.60;26.05;;;31.10;46.40;;;;;;1785677;80;21159;-72
2022/04/09 08:18:24;;;;;;;33.75;27.58;;;31.20;46.30;;;;;;1787440;79;21194;-72
2022/04/09 08:20:57;;;;;;;29.48;26.27;;;31.20;46.30;;;;;;1760400;80;21614;-72
2022/04/09 08:23:28;;;;;;;31.52;26.52;;;31.20;46.20;;;;;;1787397;80;21252;-72
2022/04/09 08:26:00;;;;;;;32.53;26.77;;;31.20;46.10;;;;;;1750107;82;21625;-71
2022/04/09 08:28:36;;;;;;;29.67;25.80;;;31.20;46.30;;;;;;1781603;80;21689;-71
2022/04/09 08:31:04;;;;;;;33.08;26.75;;;31.20;46.90;;;;;;1771573;81;21166;-70
2022/04/09 08:33:35;;;;;;;34.00;26.70;;;31.20;46.80;;;;;;1739237;82;21180;-71
2022/04/09 08:36:06;;;;;;;34.55;27.42;;;31.20;46.40;;;;;;1760908;80;21622;-70
2022/04/09 08:38:37;;;;;;;36.25;27.65;;;31.20;46.70;;;;;;1788059;79;21111;-72
2022/04/09 08:41:09;;;;;;;30.40;27.15;;;31.20;46.30;;;;;;1759145;81;21637;-70
2022/04/09 08:43:40;;;;;;;30.90;27.48;;;31.10;45.90;;;;;;1724193;83;21950;-70
2022/04/09 08:46:11;;;;;;;39.33;27.30;;;31.10;45.80;;;;;;1779701;79;21151;-71
2022/04/09 08:48:45;;;;;;;36.60;27.40;;;31.10;46.50;;;;;;1779236;79;21564;-71
2022/04/09 08:51:16;;;;;;;32.48;27.27;;;31.10;46.70;;;;;;1771557;80;21582;-71
2022/04/09 08:53:51;;;;;;;31.70;26.45;;;31.10;46.70;;;;;;1752718;81;21230;-71
2022/04/09 08:56:21;;;;;;;33.75;27.37;;;31.10;46.50;;;;;;1755816;81;21111;-71
2022/04/09 08:58:53;;;;;;;29.77;26.65;;;31.10;46.70;;;;;;1755967;81;21103;-72
2022/04/09 09:01:24;;;;;;;34.85;27.50;;;31.10;46.50;;;;;;1774594;79;21178;-73
2022/04/09 09:03:57;;;;;;;33.78;27.95;;;31.10;46.40;;;;;;1772189;80;21668;-72
2022/04/09 09:06:31;;;;;;;38.48;29.60;;;31.10;46.60;;;;;;1756342;82;21103;-83
2022/04/09 09:09:04;;;;;;;32.45;28.42;;;31.10;46.80;;;;;;1727398;82;21191;-84
2022/04/09 09:11:38;;;;;;;34.23;28.47;;;31.00;46.90;;;;;;1751861;80;21462;-83
2022/04/09 09:14:09;;;;;;;33.13;27.42;;;31.00;47.20;;;;;;1800097;79;21179;-83
2022/04/09 09:16:40;;;;;;;35.15;28.05;;;31.00;47.10;;;;;;1791310;79;21280;-84
2022/04/09 09:19:11;;;;;;;34.67;28.27;;;31.00;46.80;;;;;;1802709;79;21167;-83
2022/04/09 09:21:45;;;;;;;34.13;26.02;;;31.00;46.60;;;;;;1784297;79;21147;-85
2022/04/09 09:24:17;;;;;;;31.35;26.82;;;31.00;46.00;;;;;;1789412;79;21166;-83
2022/04/09 09:26:49;;;;;;;32.53;27.98;;;31.00;46.60;;;;;;1768470;79;21199;-84
2022/04/09 09:29:23;;;;;;;32.28;26.73;;;30.90;46.70;;;;;;1792540;79;21098;-84
2022/04/09 09:31:54;;;;;;;33.23;26.68;;;30.90;46.60;;;;;;1784080;79;21088;-84
2022/04/09 09:34:26;;;;;;;33.78;26.65;;;30.90;46.30;;;;;;1791843;79;21213;-83
2022/04/09 09:36:58;;;;;;;29.90;25.52;;;30.90;46.10;;;;;;1780200;79;21169;-84
2022/04/09 09:39:33;;;;;;;33.33;26.20;;;30.90;46.40;;;;;;1797160;79;21332;-83
2022/04/09 09:42:04;;;;;;;30.95;25.48;;;30.80;46.10;;;;;;1779120;79;21071;-82
2022/04/09 09:44:37;;;;;;;31.45;24.92;;;30.80;46.00;;;;;;1798962;79;21158;-84
2022/04/09 09:47:12;;;;;;;35.38;26.20;;;30.80;46.30;;;;;;1800827;79;21215;-84
2022/04/09 09:49:47;;;;;;;32.15;26.37;;;30.80;46.10;;;;;;1789900;79;21112;-83
2022/04/09 09:52:17;;;;;;;28.32;24.80;;;30.80;46.80;;;;;;1802987;79;21100;-84
2022/04/09 09:54:50;;;;;;;30.25;26.50;;;30.80;46.20;;;;;;1800470;79;21191;-82
2022/04/09 09:57:23;;;;;;;30.10;26.80;;;30.80;46.00;;;;;;1782669;79;21203;-85
2022/04/09 09:59:56;;;;;;;32.88;25.70;;;30.80;45.50;;;;;;1768074;80;21120;-85
2022/04/09 10:02:29;;;;;;;30.25;26.85;;;30.70;45.90;;;;;;1802330;79;21537;-83
2022/04/09 10:05:00;;;;;;;31.85;25.90;;;30.70;45.70;;;;;;1772924;80;21269;-82
2022/04/09 10:07:31;;;;;;;35.00;26.80;;;30.70;45.90;;;;;;1786413;79;21135;-84
2022/04/09 10:10:04;;;;;;;35.10;27.65;;;30.70;46.10;;;;;;1761423;81;21096;-83
2022/04/09 10:12:39;;;;;;;30.70;26.52;;;30.60;46.40;;;;;;1733513;82;21640;-82
2022/04/09 10:15:12;;;;;;;35.90;28.65;;;30.60;46.60;;;;;;1712567;82;21128;-83
2022/04/09 10:17:44;;;;;;;34.90;27.82;;;30.60;46.80;;;;;;1718691;83;21136;-83
2022/04/09 10:20:19;;;;;;;33.20;27.25;;;30.60;46.90;;;;;;1719972;82;21199;-83
2022/04/09 10:22:49;;;;;;;32.17;26.45;;;30.60;46.90;;;;;;1727604;83;21590;-84
2022/04/09 10:25:22;;;;;;;39.58;29.37;;;30.60;46.90;;;;;;1736937;82;21210;-83
2022/04/09 10:27:56;;;;;;;34.63;28.23;;;30.50;46.90;;;;;;1734705;82;21246;-82
2022/04/09 10:30:29;;;;;;;34.10;28.02;;;30.50;46.90;;;;;;1735166;82;21200;-82
2022/04/09 10:33:01;;;;;;;31.73;26.95;;;30.50;47.00;;;;;;1738419;82;21125;-82
2022/04/09 10:35:41;;;;;;;34.30;26.73;;;30.40;47.00;;;;;;1736877;82;21220;-84
2022/04/09 10:38:14;;;;;;;39.67;31.42;;;30.50;47.20;;;;;;1732581;82;21168;-83
2022/04/09 10:40:49;;;;;;;32.08;25.85;;;30.40;47.10;;;;;;1729714;82;21104;-84
2022/04/09 10:43:21;;;;;;;38.90;28.85;;;30.40;47.50;;;;;;1731490;82;21189;-83
2022/04/09 10:45:55;;;;;;;31.12;27.17;;;30.30;46.80;;;;;;1735368;82;21196;-84
2022/04/09 10:48:29;;;;;;;30.35;25.85;;;30.40;46.90;;;;;;1731494;82;21200;-84
2022/04/09 10:51:04;;;;;;;35.17;28.02;;;30.30;46.90;;;;;;1732718;82;21257;-84
2022/04/09 10:53:37;;;;;;;31.00;27.62;;;30.30;47.20;;;;;;1731234;82;21227;-84
2022/04/09 10:56:12;;;;;;;35.85;28.10;;;30.30;47.40;;;;;;1734749;82;21199;-84
2022/04/09 10:58:45;;;;;;;35.63;28.70;;;30.30;47.40;;;;;;1731758;82;21155;-84
2022/04/09 11:01:19;;;;;;;30.80;26.82;;;30.30;47.30;;;;;;1725776;82;21263;-84
2022/04/09 11:03:50;;;;;;;30.50;27.20;;;30.30;47.00;;;;;;1734276;82;21227;-85
2022/04/09 11:06:23;;;;;;;32.85;26.17;;;30.20;47.10;;;;;;1718677;82;21211;-84
2022/04/09 11:08:58;;;;;;;33.13;27.25;;;30.20;46.80;;;;;;1730399;82;21290;-84
2022/04/09 11:11:29;;;;;;;34.80;26.20;;;30.10;47.10;;;;;;1752544;80;21092;-83
2022/04/09 11:14:02;;;;;;;31.80;26.60;;;30.10;47.30;;;;;;1782405;80;21147;-83
2022/04/09 11:16:35;;;;;;;33.73;26.90;;;30.10;47.50;;;;;;1792553;79;21186;-82
2022/04/09 11:19:12;;;;;;;38.92;29.32;;;30.10;47.60;;;;;;1755662;82;21166;-83
2022/04/09 11:21:49;;;;;;;34.33;28.55;;;30.10;48.00;;;;;;1788831;79;21130;-83
2022/04/09 11:24:20;;;;;;;33.30;28.27;;;30.00;47.90;;;;;;1790896;80;21217;-84
2022/04/09 11:26:53;;;;;;;42.62;27.35;;;30.00;48.30;;;;;;1790592;80;21111;-83
2022/04/09 11:29:26;;;;;;;32.28;26.85;;;30.00;47.90;;;;;;1790781;80;21641;-85
2022/04/09 11:31:58;;;;;;;33.65;26.60;;;30.00;47.90;;;;;;1776045;80;21166;-83
2022/04/09 11:34:29;;;;;;;35.50;26.87;;;29.90;48.20;;;;;;1789442;80;21178;-84
2022/04/09 11:37:02;;;;;;;31.57;26.33;;;29.90;48.40;;;;;;1783573;80;21202;-84
2022/04/09 11:39:37;;;;;;;35.03;28.75;;;29.90;48.30;;;;;;1782429;80;21092;-84
2022/04/09 11:42:09;;;;;;;37.50;27.40;;;29.90;48.60;;;;;;1777640;80;21279;-81
2022/04/09 11:44:41;;;;;;;33.15;26.12;;;29.80;48.60;;;;;;1768487;81;21203;-80
2022/04/09 11:47:14;;;;;;;33.85;27.00;;;29.80;48.80;;;;;;1748388;81;21274;-83
2022/04/09 11:49:49;;;;;;;31.25;27.20;;;29.80;49.00;;;;;;1777834;80;21169;-81
2022/04/09 11:52:22;;;;;;;32.45;26.20;;;29.80;49.20;;;;;;1745393;82;21119;-82
2022/04/09 11:54:55;;;;;;;33.30;26.30;;;29.70;49.40;;;;;;1782120;79;21167;-83
2022/04/09 11:57:26;;;;;;;33.83;27.85;;;29.70;49.40;;;;;;1749070;81;21122;-84
2022/04/09 12:00:01;;;;;;;33.38;26.80;;;29.70;49.90;;;;;;1781668;80;21217;-82
2022/04/09 12:02:35;;;;;;;32.33;26.80;;;29.70;50.00;;;;;;1746462;81;21111;-84
2022/04/09 12:05:09;;;;;;;36.03;27.70;;;29.70;50.10;;;;;;1778997;79;21105;-83
2022/04/09 12:07:48;;;;;;;34.15;27.62;;;29.70;50.20;;;;;;1782261;79;21111;-83
2022/04/09 12:10:22;;;;;;;35.13;29.18;;;29.70;50.10;;;;;;1747767;81;21115;-84
2022/04/09 12:12:56;;;;;;;37.48;28.30;;;29.70;51.00;;;;;;1783683;79;21192;-84
2022/04/09 12:15:29;;;;;;;41.33;31.23;;;29.60;50.50;;;;;;1788305;78;21209;-83
2022/04/09 12:18:06;;;;;;;34.33;30.20;;;29.60;51.10;;;;;;1792092;78;21110;-83
2022/04/09 12:20:40;;;;;;;44.73;31.23;;;29.60;50.80;;;;;;1792888;80;21225;-83
2022/04/09 12:23:11;;;;;;;38.25;31.17;;;29.60;50.70;;;;;;1791714;78;21209;-84
2022/04/09 12:25:43;;;;;;;38.60;30.48;;;29.50;50.50;;;;;;1780268;79;21137;-82
2022/04/09 12:28:18;;;;;;;38.33;30.23;;;29.50;50.60;;;;;;1778767;80;21317;-83
2022/04/09 12:30:51;;;;;;;40.20;30.23;;;29.50;51.40;;;;;;1767478;80;21613;-83
2022/04/09 12:33:23;;;;;;;33.98;29.45;;;29.40;51.60;;;;;;1789147;79;21332;-84
2022/04/09 12:35:57;;;;;;;36.60;30.72;;;29.40;51.80;;;;;;1756645;81;21591;-84
2022/04/09 12:38:30;;;;;;;42.30;31.45;;;29.40;51.90;;;;;;1778983;80;21149;-84
2022/04/09 12:41:04;;;;;;;49.08;33.28;;;29.40;51.70;;;;;;1757459;81;21208;-84
2022/04/09 12:43:43;;;;;;;49.30;34.67;;;29.40;51.80;;;;;;1755787;81;21178;-83
2022/04/09 12:46:18;;;;;;;45.98;33.67;;;29.30;52.00;;;;;;1797129;78;21095;-84
2022/04/09 12:48:53;;;;;;;43.28;32.15;;;29.30;52.00;;;;;;1796286;80;21236;-82
2022/04/09 12:51:26;;;;;;;44.75;31.82;;;29.30;52.00;;;;;;1819599;77;21220;-82
2022/04/09 12:53:58;;;;;;;41.37;32.38;;;29.30;51.60;;;;;;1815367;78;21126;-82